Hills, Texas
Current Conditions -  °F | °C
As of 12:15 PM on Friday 28 Nov 2014 (Local Time) from KGYB Reporting Station
Broken Clouds Broken Clouds  
Wind Chill: 68°   Ceiling: 3300
Heat Index: 68°   Visibility: 10mi
Dew Point: 53°   Wind: 9mph
Humidity: 60%   Direction: 210°SSW
Pressure: 30.27"   Gusts: 17mph
Location:  30.1897°N, 97.1182°W
Report Text: KGYB 281815Z AUTO 21008G15KT 10SM BKN033 BKN039 20/12 A3027 RMK AO2 T01990118
Loading
Personal Weather Stations






























Interactive Weather Map New forecast layout! Learn more

10-Day Weather Forecast

Advertisements
Track Severe Weather on mobile